メインページ
METAR-TAF:

METAR-TAF

空港 :

ジュノー, アラスカ州, アメリカ合衆国

ジュノー国際空港

緯度: 58-21-17N, 経度: 134-34-34W, 海抜: 6m

現時点の気象観測

当レポートは1時間4分前の10:53(UTC)に作成
無風
気温 1°C
湿度 93%
気圧 1007 hPa
視程: 16.1km
晴天

METAR: PAJN 231053Z 00000KT 10SM CLR 01/00 A2975 RMK AO2 SLP075 T00110000

時間: 03:57 (11:57 UTC)

予報

当レポートは35分前の11:22(UTC)に作成
予報は23日の 12時(UTC)から 24日の 12時(UTC)まで有効
変向風 2kt
視程: 10km
高度10000ftの雲はほとんどない
高度20000ftの雲は散在している
23日の 2000時(UTC)から
南西の風 6kt
視程: 10km
高度5000ftの雲はほとんどない
高度10000ftの雲は散在している
24日の 0600時(UTC)から
東/南東の風 4kt
視程: 10km
高度6000ftの雲は散在している
高度10000ftの千切れ雲あり
近辺でにわか雨

TAF: PAJN 231122Z 2312/2412 VRB02KT P6SM FEW100 SCT200 FM232000 23006KT P6SM FEW050 SCT100 FM240600 12004KT P6SM VCSH SCT060 BKN100

4,000以上の空港の気象観測と天気予報(METAR報とTAF報)

利用可能な観測所は地図上に黄色い丸と赤い丸で示す。

丸の上にカーソルを重ねると観測所名を参照できる。

次にクリックすると気象観測と天気予報を参照できる。

マップの切り替え:黒色「×」印の緑ボタンをクリックして拡大、「-」印の緑ボタンをクリックして縮小、緑色の三角印をクリックして隣りの地図に切り替え


METAR-TAF: